• Join FlightAware (Why Join?)
  • Login
  • US Flag 
07:48AM EDT


 

Airport Tracker/Info


-or-


 

Live Flight TrackerFlight Track Log ✈ CCA1223 ✈ 08-May-2013 ✈ ZBAA / PEK - ZLXY / XIY

Flight Track Log - Related Links

Times and Time Zones

All times are in EDT time to prevent confusion due to time zone crossing. See the CCA1223 flight status page for this flight to view local times or setup timezone preferences in your user account.

Time Position Orientation Groundspeed Altitude Reporting Facility
EDT Latitude Longitude Course Direction KTS MPH feet Rate Location/Type
01:02AM 39.9460 116.6100 183° South 244 281 3,600  Level FlightAware
01:03AM 39.8670 116.6060 182° South 252 290 7,200 2,760 Climbing FlightAware
01:04AM 39.8570 116.6060 180° South 252 290 9,200 1,500 Climbing FlightAware
01:04AM 39.8280 116.6040 183° South 252 290 9,200  Level FlightAware
01:05AM 39.7980 116.6020 183° South 252 290 9,200  Level FlightAware
01:05AM 39.7780 116.6000 184° South 252 290 9,200 2,220 Level FlightAware
01:07AM 39.6500 116.4100 229° Southwest 352 405 14,200 2,700 Climbing FlightAware
01:08AM 39.6530 116.3210 273° West 352 405 16,400 1,440 Climbing FlightAware
01:08AM 39.6580 116.2330 274° West 352 405 16,400 2,700 Level FlightAware
01:10AM 39.6590 116.1570 271° West 351 404 21,600 2,880 Climbing FlightAware
01:10AM 39.6650 115.9910 273° West 365 420 21,700 60 Climbing FlightAware
01:11AM 39.6680 115.9170 273° West 365 420 21,700  Level FlightAware
01:12AM 39.6720 115.8240 273° West 365 420 21,700  Level FlightAware
01:12AM 39.6750 115.7490 273° West 365 420 21,700  Level FlightAware
01:13AM 39.6780 115.6750 273° West 365 420 21,700  Level FlightAware
01:14AM 39.6810 115.6000 273° West 365 420 21,700  Level FlightAware
01:16AM 39.5896 115.4667 228° Southwest  Level Estimated
01:17AM 39.5387 115.3928 228° Southwest  Level Estimated
01:18AM 39.4878 115.3191 228° Southwest  Level Estimated
01:19AM 39.4369 115.2454 228° Southwest  Level Estimated
01:20AM 39.3858 115.1718 228° Southwest  Level Estimated
01:21AM 39.3348 115.0984 228° Southwest  Level Estimated
01:22AM 39.2837 115.0250 228° Southwest  Level Estimated
01:23AM 39.2326 114.9518 228° Southwest  Level Estimated
01:24AM 39.1814 114.8786 228° Southwest  Level Estimated
01:25AM 39.1302 114.8056 228° Southwest  Level Estimated
01:26AM 39.0789 114.7327 228° Southwest  Level Estimated
01:27AM 39.0276 114.6599 228° Southwest  Level Estimated
01:28AM 38.9762 114.5872 228° Southwest  Level Estimated
01:29AM 38.9248 114.5145 228° Southwest  Level Estimated
01:30AM 38.8733 114.4420 228° Southwest  Level Estimated
01:31AM 38.8218 114.3697 228° Southwest  Level Estimated
01:32AM 38.7703 114.2974 228° Southwest  Level Estimated
01:33AM 38.7187 114.2252 228° Southwest  Level Estimated
01:34AM 38.6671 114.1531 227° Southwest  Level Estimated
01:35AM 38.6154 114.0811 227° Southwest  Level Estimated
01:36AM 38.5637 114.0092 227° Southwest  Level Estimated
01:37AM 38.5119 113.9375 227° Southwest  Level Estimated
01:38AM 38.4601 113.8658 227° Southwest  Level Estimated
01:39AM 38.4083 113.7942 227° Southwest  Level Estimated
01:40AM 38.3564 113.7228 227° Southwest  Level Estimated
01:41AM 38.3044 113.6514 227° Southwest  Level Estimated
01:42AM 38.2524 113.5801 227° Southwest  Level Estimated
01:43AM 38.2004 113.5090 227° Southwest  Level Estimated
01:44AM 38.1483 113.4379 227° Southwest  Level Estimated
01:45AM 38.0962 113.3670 227° Southwest  Level Estimated
01:46AM 38.0441 113.2961 227° Southwest  Level Estimated
01:47AM 37.9919 113.2254 227° Southwest  Level Estimated
01:48AM 37.9397 113.1547 227° Southwest  Level Estimated
01:49AM 37.8874 113.0842 227° Southwest  Level Estimated
01:50AM 37.8350 113.0137 227° Southwest  Level Estimated
01:51AM 37.7827 112.9434 227° Southwest  Level Estimated
01:52AM 37.7303 112.8731 227° Southwest  Level Estimated
01:53AM 37.6778 112.8030 227° Southwest  Level Estimated
01:54AM 37.6253 112.7329 227° Southwest  Level Estimated
01:55AM 37.5728 112.6630 227° Southwest  Level Estimated
01:56AM 37.5202 112.5931 227° Southwest  Level Estimated
01:57AM 37.4676 112.5234 226° Southwest  Level Estimated
01:58AM 37.4150 112.4537 226° Southwest  Level Estimated
01:59AM 37.3623 112.3841 226° Southwest  Level Estimated
02:00AM 37.3096 112.3147 226° Southwest  Level Estimated
02:01AM 37.2568 112.2453 226° Southwest  Level Estimated
02:02AM 37.2039 112.1760 226° Southwest  Level Estimated
02:03AM 37.1511 112.1069 226° Southwest  Level Estimated
02:04AM 37.0982 112.0378 226° Southwest  Level Estimated
02:05AM 37.0452 111.9688 226° Southwest  Level Estimated
02:06AM 36.9923 111.8999 226° Southwest  Level Estimated
02:07AM 36.9393 111.8312 226° Southwest  Level Estimated
02:08AM 36.8862 111.7625 226° Southwest  Level Estimated
02:09AM 36.8331 111.6939 226° Southwest  Level Estimated
02:10AM 36.7800 111.6254 226° Southwest  Level Estimated
02:11AM 36.7268 111.5570 226° Southwest  Level Estimated
02:12AM 36.6736 111.4887 226° Southwest  Level Estimated
02:13AM 36.6203 111.4204 226° Southwest  Level Estimated
02:14AM 36.5670 111.3523 226° Southwest  Level Estimated
02:15AM 36.5137 111.2843 226° Southwest  Level Estimated
02:16AM 36.4603 111.2164 226° Southwest  Level Estimated
02:17AM 36.4069 111.1485 226° Southwest  Level Estimated
02:18AM 36.3535 111.0808 226° Southwest  Level Estimated
02:19AM 36.3000 111.0131 226° Southwest  Level Estimated
02:20AM 36.2465 110.9456 226° Southwest  Level Estimated
02:21AM 36.1929 110.8781 225° Southwest  Level Estimated
02:22AM 36.1393 110.8107 225° Southwest  Level Estimated
02:23AM 36.0857 110.7434 225° Southwest  Level Estimated
02:24AM 36.0320 110.6762 225° Southwest  Level Estimated
02:25AM 35.9783 110.6091 225° Southwest  Level Estimated
02:26AM 35.9246 110.5421 225° Southwest  Level Estimated
02:27AM 35.8708 110.4752 225° Southwest  Level Estimated
02:28AM 35.8170 110.4084 225° Southwest  Level Estimated
02:29AM 35.7631 110.3416 225° Southwest  Level Estimated
02:30AM 35.7092 110.2750 225° Southwest  Level Estimated
02:31AM 35.6553 110.2084 225° Southwest  Level Estimated
02:32AM 35.6013 110.1420 225° Southwest  Level Estimated
02:33AM 35.5473 110.0756 225° Southwest  Level Estimated
02:34AM 35.4933 110.0093 225° Southwest  Level Estimated
02:35AM 35.4392 109.9431 225° Southwest  Level Estimated
02:36AM 35.3851 109.8770 225° Southwest  Level Estimated
02:37AM 35.3309 109.8110 225° Southwest  Level Estimated
02:38AM 35.2767 109.7450 225° Southwest  Level Estimated
02:39AM 35.2225 109.6792 225° Southwest  Level Estimated
02:40AM 35.1683 109.6134 225° Southwest  Level Estimated
02:41AM 35.1140 109.5478 225° Southwest  Level Estimated
02:42AM 35.0597 109.4822 225° Southwest  Level Estimated
02:43AM 35.0053 109.4167 225° Southwest  Level Estimated
02:44AM 34.9509 109.3513 225° Southwest  Level Estimated
02:45AM 34.8965 109.2860 225° Southwest  Level Estimated
02:46AM 34.8420 109.2207 225° Southwest  Level Estimated
02:47AM 34.7875 109.1556 224° Southwest  Level Estimated
02:48AM 34.7329 109.0905 224° Southwest  Level Estimated
02:49AM 34.6784 109.0255 224° Southwest  Level Estimated
02:50AM 34.6238 108.9606 224° Southwest  Level Estimated
02:51AM 34.5691 108.8959 224° Southwest  Level Estimated
02:52AM 34.5145 108.8311 224° Southwest  Level Estimated
02:53AM 34.4598 108.7665 224° Southwest  Level Estimated
02:54AM 34.4471 108.7516 224° Southwest  Level Estimated
02:55AM 34.4471 108.7516 121° Southeast  Level Estimated
02:56AM 34.4471 108.7516 121° Southeast  Level Estimated
02:57AM 34.4471 108.7516 121° Southeast  Level Estimated
02:58AM 34.4471 108.7516 121° Southeast  Level Estimated
02:59AM 34.4471 108.7516 121° Southeast  Level Estimated
03:00AM 34.4471 108.7516 121° Southeast  Level Estimated
03:01AM 34.4471 108.7516 121° Southeast  Level Estimated
03:02AM 34.4471 108.7516 121° Southeast  Level Estimated
03:03AM 34.4471 108.7516 121° Southeast  Level Estimated
03:04AM 34.4471 108.7516 121° Southeast  Level Estimated
03:05AM 34.4471 108.7516 121° Southeast  Level Estimated
03:06AM 34.4471 108.7516 121° Southeast  Level Estimated
03:07AM 34.4471 108.7516 121° Southeast  Level Estimated
03:08AM 34.4471 108.7516 121° Southeast  Level Estimated